createdAt,value
2022-11-12T00:01:38.850Z,13.27
2022-11-12T00:04:24.462Z,13.13
2022-11-12T00:07:10.299Z,11.17
2022-11-12T00:09:55.395Z,11.30
2022-11-12T00:12:41.045Z,11.63
2022-11-12T00:15:27.102Z,12.77
2022-11-12T00:18:12.907Z,13.13
2022-11-12T00:20:58.088Z,11.90
2022-11-12T00:23:43.651Z,12.17
2022-11-12T00:26:29.255Z,10.87
2022-11-12T00:29:14.713Z,10.50
2022-11-12T00:32:00.390Z,10.70
2022-11-12T00:34:46.201Z,10.47
2022-11-12T00:37:31.665Z,9.90
2022-11-12T00:40:17.376Z,10.40
2022-11-12T00:43:02.695Z,10.60
2022-11-12T00:45:48.229Z,9.90
2022-11-12T00:48:33.761Z,10.13
2022-11-12T00:51:19.231Z,10.13
2022-11-12T00:54:05.069Z,10.37
2022-11-12T00:56:50.249Z,10.00
2022-11-12T00:59:35.702Z,9.47
2022-11-12T01:02:22.191Z,9.27
2022-11-12T01:05:08.043Z,10.17
2022-11-12T01:07:56.035Z,9.57
2022-11-12T01:10:41.894Z,9.13
2022-11-12T01:13:30.128Z,9.80
2022-11-12T01:16:22.068Z,9.23
2022-11-12T01:19:09.609Z,9.90
2022-11-12T01:21:54.897Z,10.60
2022-11-12T01:24:40.343Z,9.70
2022-11-12T01:27:25.817Z,9.23
2022-11-12T01:30:11.465Z,9.63
2022-11-12T01:32:57.307Z,9.37
2022-11-12T01:35:42.875Z,9.67
2022-11-12T01:38:28.765Z,10.37
2022-11-12T01:41:21.210Z,9.53
2022-11-12T01:44:20.073Z,9.53
2022-11-12T01:47:11.658Z,9.73
2022-11-12T01:50:14.735Z,9.87
2022-11-12T01:53:08.461Z,10.47
2022-11-12T01:55:56.014Z,10.20
2022-11-12T01:58:41.321Z,10.50
2022-11-12T02:01:26.963Z,9.57
2022-11-12T02:04:12.474Z,10.17
2022-11-12T02:06:59.480Z,9.73
2022-11-12T02:09:44.805Z,10.00
2022-11-12T02:12:48.752Z,10.00
2022-11-12T02:15:34.614Z,10.13
2022-11-12T02:18:19.736Z,8.83
2022-11-12T02:21:09.051Z,10.23
2022-11-12T02:24:20.971Z,9.43
2022-11-12T02:27:07.427Z,9.37
2022-11-12T02:29:52.630Z,9.20
2022-11-12T02:32:38.020Z,9.07
2022-11-12T02:35:23.538Z,9.03
2022-11-12T02:38:10.053Z,9.40
2022-11-12T02:40:55.212Z,9.80
2022-11-12T02:43:41.781Z,9.30
2022-11-12T02:46:27.084Z,9.70
2022-11-12T02:49:12.434Z,9.50
2022-11-12T02:51:58.013Z,9.50
2022-11-12T02:54:43.646Z,9.47
2022-11-12T02:57:30.281Z,9.90
2022-11-12T03:00:16.170Z,10.80
2022-11-12T03:03:01.732Z,10.07
2022-11-12T03:05:55.961Z,9.87
2022-11-12T03:08:41.572Z,8.57
2022-11-12T03:11:27.293Z,9.10
2022-11-12T03:14:12.504Z,9.43
2022-11-12T03:16:57.850Z,9.03
2022-11-12T03:19:43.468Z,8.97
2022-11-12T03:22:29.182Z,10.23
2022-11-12T03:25:14.599Z,8.97
2022-11-12T03:28:11.667Z,9.33
2022-11-12T03:30:59.420Z,9.33
2022-11-12T03:33:45.016Z,9.90
2022-11-12T03:36:30.485Z,8.83
2022-11-12T03:39:15.890Z,8.80
2022-11-12T03:42:01.491Z,8.33
2022-11-12T03:44:46.927Z,7.40
2022-11-12T03:47:32.555Z,7.77
2022-11-12T03:50:19.782Z,8.13
2022-11-12T03:53:04.991Z,8.20
2022-11-12T03:55:50.551Z,8.63
2022-11-12T03:58:35.879Z,8.30
2022-11-12T04:01:21.517Z,8.20
2022-11-12T04:04:07.002Z,7.43
2022-11-12T04:07:10.984Z,7.83
2022-11-12T04:09:56.525Z,8.80
2022-11-12T04:13:00.427Z,7.90
2022-11-12T04:16:05.783Z,8.40
2022-11-12T04:19:12.009Z,7.93
2022-11-12T04:22:08.004Z,9.87
2022-11-12T04:25:12.071Z,9.30
2022-11-12T04:27:57.597Z,9.87
2022-11-12T04:30:43.311Z,9.27
2022-11-12T04:33:28.695Z,9.53
2022-11-12T04:36:14.199Z,10.83
2022-11-12T04:38:59.601Z,10.27
2022-11-12T04:42:03.629Z,10.70
2022-11-12T04:45:04.817Z,10.00
2022-11-12T04:47:50.224Z,9.83
2022-11-12T04:50:36.021Z,10.53
2022-11-12T04:53:21.765Z,10.83
2022-11-12T04:56:07.247Z,10.63
2022-11-12T04:58:52.609Z,10.53
2022-11-12T05:01:37.903Z,10.70
2022-11-12T05:04:27.498Z,10.97
2022-11-12T05:07:13.813Z,9.13
2022-11-12T05:09:58.951Z,10.87
2022-11-12T05:12:44.621Z,9.93
2022-11-12T05:15:30.306Z,10.00
2022-11-12T05:18:15.794Z,10.03
2022-11-12T05:21:21.274Z,8.23
2022-11-12T05:24:06.974Z,7.50
2022-11-12T05:26:52.818Z,8.03
2022-11-12T05:29:38.760Z,7.17
2022-11-12T05:32:24.120Z,6.27
2022-11-12T05:35:09.682Z,6.80
2022-11-12T05:37:55.298Z,7.67
2022-11-12T05:40:45.208Z,7.20
2022-11-12T05:43:30.693Z,7.93
2022-11-12T05:46:16.548Z,7.70
2022-11-12T05:49:01.815Z,8.30
2022-11-12T05:51:47.381Z,8.40
2022-11-12T05:54:32.970Z,8.87
2022-11-12T05:57:18.736Z,9.00
2022-11-12T06:00:04.566Z,8.40
2022-11-12T06:02:50.028Z,8.63
2022-11-12T06:05:36.298Z,9.57
2022-11-12T06:08:22.047Z,8.77
2022-11-12T06:11:07.408Z,9.17
2022-11-12T06:13:52.985Z,9.20
2022-11-12T06:16:38.467Z,10.17
2022-11-12T06:19:23.990Z,9.40
2022-11-12T06:22:09.565Z,9.17
2022-11-12T06:24:55.076Z,9.53
2022-11-12T06:27:40.652Z,9.03
2022-11-12T06:30:26.103Z,9.50
2022-11-12T06:33:11.659Z,9.20
2022-11-12T06:36:03.253Z,9.23
2022-11-12T06:38:49.262Z,8.50
2022-11-12T06:41:34.390Z,8.90
2022-11-12T06:44:22.296Z,8.67
2022-11-12T06:47:08.283Z,9.07
2022-11-12T06:49:53.660Z,9.17
2022-11-12T06:52:39.235Z,9.83
2022-11-12T06:55:24.608Z,8.87
2022-11-12T06:58:10.029Z,9.70
2022-11-12T07:00:58.892Z,9.00
2022-11-12T07:03:45.039Z,10.17
2022-11-12T07:06:30.802Z,9.63
2022-11-12T07:09:16.334Z,9.40
2022-11-12T07:12:01.749Z,10.37
2022-11-12T07:14:47.280Z,9.20
2022-11-12T07:17:32.674Z,9.23
2022-11-12T07:20:18.278Z,9.83
2022-11-12T07:23:03.770Z,9.80
2022-11-12T07:25:56.950Z,11.13
2022-11-12T07:28:42.824Z,10.73
2022-11-12T07:31:28.343Z,10.03
2022-11-12T07:34:13.780Z,11.10
2022-11-12T07:36:59.231Z,10.70
2022-11-12T07:39:44.876Z,10.03
2022-11-12T07:42:33.567Z,10.77
2022-11-12T07:45:19.180Z,10.80
2022-11-12T07:48:04.746Z,11.20
2022-11-12T07:50:49.922Z,10.57
2022-11-12T07:53:35.600Z,11.50
2022-11-12T07:56:23.783Z,12.07
2022-11-12T07:59:09.384Z,11.53
2022-11-12T08:01:55.539Z,11.67
2022-11-12T08:04:41.147Z,10.63
2022-11-12T08:07:26.861Z,11.60
2022-11-12T08:10:14.306Z,11.33
2022-11-12T08:12:59.655Z,12.20
2022-11-12T08:15:50.993Z,11.73
2022-11-12T08:18:37.353Z,12.13
2022-11-12T08:21:22.945Z,11.53
2022-11-12T08:24:08.602Z,11.10
2022-11-12T08:26:54.088Z,12.43
2022-11-12T08:29:39.482Z,12.53
2022-11-12T08:32:25.206Z,12.07
2022-11-12T08:35:10.578Z,11.93
2022-11-12T08:38:04.831Z,13.07
2022-11-12T08:40:50.244Z,12.20
2022-11-12T08:43:36.609Z,12.33
2022-11-12T08:46:21.812Z,11.93
2022-11-12T08:49:07.283Z,13.40
2022-11-12T08:51:52.830Z,12.50
2022-11-12T08:54:38.224Z,11.50
2022-11-12T08:57:23.659Z,11.87
2022-11-12T09:00:13.308Z,12.60
2022-11-12T09:03:06.921Z,12.57
2022-11-12T09:05:53.150Z,12.87
2022-11-12T09:08:39.829Z,12.20
2022-11-12T09:11:25.063Z,12.30
2022-11-12T09:14:10.577Z,12.07
2022-11-12T09:16:56.251Z,12.53
2022-11-12T09:19:43.209Z,13.03
2022-11-12T09:22:28.861Z,12.53
2022-11-12T09:25:14.515Z,13.00
2022-11-12T09:28:09.684Z,12.93
2022-11-12T09:30:55.503Z,13.23
2022-11-12T09:33:40.798Z,12.83
2022-11-12T09:36:26.585Z,12.70
2022-11-12T09:39:12.119Z,13.00
2022-11-12T09:42:01.945Z,12.43
2022-11-12T09:45:05.819Z,12.17
2022-11-12T09:47:57.841Z,12.33
2022-11-12T09:50:53.707Z,12.10
2022-11-12T09:53:50.572Z,11.60
2022-11-12T09:56:36.010Z,12.80
2022-11-12T09:59:23.782Z,11.10
2022-11-12T10:02:39.035Z,12.47
2022-11-12T10:05:24.490Z,12.23
2022-11-12T10:08:37.612Z,13.37
2022-11-12T10:11:53.253Z,13.50
2022-11-12T10:15:27.150Z,12.73
2022-11-12T10:18:39.622Z,12.47
2022-11-12T10:21:43.668Z,11.40
2022-11-12T10:24:35.571Z,10.67
2022-11-12T10:27:26.180Z,11.17
2022-11-12T10:30:23.940Z,11.13
2022-11-12T10:33:14.875Z,13.80
2022-11-12T10:36:18.909Z,11.83
2022-11-12T10:39:04.183Z,9.77
2022-11-12T10:42:06.906Z,10.00
2022-11-12T10:44:52.391Z,10.40
2022-11-12T10:47:42.970Z,11.40
2022-11-12T10:50:42.431Z,10.43
2022-11-12T10:53:33.093Z,10.13
2022-11-12T10:56:31.135Z,10.40
2022-11-12T10:59:21.525Z,9.80
2022-11-12T11:02:17.728Z,10.13
2022-11-12T11:05:20.796Z,9.80
2022-11-12T11:08:06.136Z,10.37
2022-11-12T11:11:16.130Z,9.70
2022-11-12T11:14:23.189Z,10.23
2022-11-12T11:17:18.050Z,9.63
2022-11-12T11:20:22.793Z,10.53
2022-11-12T11:23:20.453Z,9.40
2022-11-12T11:26:53.451Z,10.63
2022-11-12T11:29:56.967Z,9.27
2022-11-12T11:33:28.032Z,9.73
2022-11-12T11:36:24.513Z,8.57
2022-11-12T11:39:45.214Z,8.90
2022-11-12T11:42:33.598Z,8.13
2022-11-12T11:45:33.054Z,9.17
2022-11-12T11:48:42.780Z,8.83
2022-11-12T11:51:46.015Z,8.10
2022-11-12T11:55:04.841Z,9.27
2022-11-12T11:58:10.870Z,7.93
2022-11-12T12:01:17.720Z,7.50
2022-11-12T12:04:22.202Z,7.70
2022-11-12T12:07:25.658Z,8.07
2022-11-12T12:10:53.726Z,7.87
2022-11-12T12:13:59.592Z,7.27
2022-11-12T12:17:14.217Z,7.63
2022-11-12T12:20:19.887Z,7.57
2022-11-12T12:23:29.556Z,6.83
2022-11-12T12:26:20.668Z,5.97
2022-11-12T12:29:31.187Z,6.10
2022-11-12T12:32:27.020Z,6.20
2022-11-12T12:35:36.869Z,6.10
2022-11-12T12:38:37.269Z,6.90
2022-11-12T12:41:27.905Z,6.87
2022-11-12T12:44:13.822Z,6.10
2022-11-12T12:47:02.513Z,6.37
2022-11-12T12:49:50.469Z,5.33
2022-11-12T12:53:02.179Z,5.77
2022-11-12T12:55:49.039Z,5.33
2022-11-12T12:58:40.572Z,5.80
2022-11-12T13:01:32.273Z,5.30
2022-11-12T13:04:17.545Z,5.50
2022-11-12T13:07:06.281Z,5.13
2022-11-12T13:10:32.515Z,5.70
2022-11-12T13:13:17.778Z,6.37
2022-11-12T13:16:03.818Z,5.70
2022-11-12T13:18:52.468Z,6.17
2022-11-12T13:21:37.991Z,5.93
2022-11-12T13:25:02.129Z,6.30
2022-11-12T13:27:47.331Z,6.63
2022-11-12T13:30:32.864Z,6.47
2022-11-12T13:33:28.779Z,7.07
2022-11-12T13:36:32.302Z,6.30
2022-11-12T13:39:20.218Z,6.90
2022-11-12T13:42:36.882Z,7.37
2022-11-12T13:45:25.007Z,6.90
2022-11-12T13:48:30.814Z,8.10
2022-11-12T13:51:31.450Z,7.17
2022-11-12T13:54:26.064Z,6.90
2022-11-12T13:57:34.995Z,6.50
2022-11-12T14:00:26.750Z,7.00
2022-11-12T14:03:16.830Z,6.70
2022-11-12T14:06:08.015Z,7.10
2022-11-12T14:08:56.521Z,7.17
2022-11-12T14:12:01.403Z,7.17
2022-11-12T14:15:03.759Z,8.50
2022-11-12T14:18:15.501Z,8.53
2022-11-12T14:21:06.600Z,8.90
2022-11-12T14:23:53.015Z,8.87
2022-11-12T14:26:40.534Z,9.23
2022-11-12T14:29:29.904Z,8.50
2022-11-12T14:32:18.896Z,8.23
2022-11-12T14:35:27.746Z,7.67
2022-11-12T14:38:30.744Z,6.37
2022-11-12T14:41:33.648Z,6.90
2022-11-12T14:44:34.284Z,6.70
2022-11-12T14:47:19.984Z,6.93
2022-11-12T14:50:06.269Z,6.23
2022-11-12T14:52:59.198Z,7.63
2022-11-12T14:55:50.375Z,6.13
2022-11-12T14:58:36.201Z,5.77
2022-11-12T15:02:03.810Z,6.50
2022-11-12T15:04:40.854Z,6.47
2022-11-12T15:07:31.234Z,6.53
2022-11-12T15:10:42.302Z,6.27
2022-11-12T15:13:28.053Z,7.07
2022-11-12T15:16:37.034Z,6.47
2022-11-12T15:19:24.759Z,7.17
2022-11-12T15:22:20.904Z,7.57
2022-11-12T15:25:24.097Z,7.03
2022-11-12T15:28:23.995Z,7.37
2022-11-12T15:31:19.305Z,7.70
2022-11-12T15:34:23.761Z,7.27
2022-11-12T15:37:19.815Z,7.03
2022-11-12T15:40:15.862Z,7.47
2022-11-12T15:43:02.275Z,7.03
2022-11-12T15:45:49.503Z,6.53
2022-11-12T15:48:34.983Z,6.73
2022-11-12T15:51:20.523Z,8.40
2022-11-12T15:54:06.215Z,8.37
2022-11-12T15:56:51.992Z,8.30
2022-11-12T15:59:37.474Z,8.30
2022-11-12T16:02:26.878Z,8.13
2022-11-12T16:05:14.600Z,8.60
2022-11-12T16:08:00.057Z,9.63
2022-11-12T16:10:47.134Z,9.13
2022-11-12T16:13:33.335Z,9.90
2022-11-12T16:16:18.850Z,10.50
2022-11-12T16:19:04.451Z,11.17
2022-11-12T16:21:50.123Z,10.43
2022-11-12T16:24:35.681Z,12.50
2022-11-12T16:27:22.670Z,12.67
2022-11-12T16:30:20.036Z,12.13
2022-11-12T16:33:05.442Z,9.77
2022-11-12T16:35:51.213Z,10.30
2022-11-12T16:38:36.461Z,10.47
2022-11-12T16:41:22.063Z,9.57
2022-11-12T16:44:10.730Z,9.80
2022-11-12T16:46:56.013Z,11.37
2022-11-12T16:49:42.747Z,13.83
2022-11-12T16:52:28.291Z,15.40
2022-11-12T16:55:14.194Z,12.53
2022-11-12T16:57:59.574Z,12.93
2022-11-12T17:00:47.039Z,12.30
2022-11-12T17:03:32.292Z,11.60
2022-11-12T17:06:17.854Z,11.00
2022-11-12T17:09:08.598Z,13.03
2022-11-12T17:11:54.033Z,13.17
2022-11-12T17:14:39.599Z,12.87
2022-11-12T17:17:25.069Z,11.73
2022-11-12T17:20:10.775Z,11.50
2022-11-12T17:22:56.044Z,12.73
2022-11-12T17:25:41.362Z,12.87
2022-11-12T17:28:28.815Z,11.87
2022-11-12T17:31:18.357Z,14.13
2022-11-12T17:34:06.365Z,14.23
2022-11-12T17:36:51.675Z,13.27
2022-11-12T17:39:37.337Z,15.30
2022-11-12T17:42:22.711Z,14.43
2022-11-12T17:45:08.702Z,13.30
2022-11-12T17:47:54.438Z,12.90
2022-11-12T17:50:39.987Z,12.47
2022-11-12T17:53:25.766Z,11.40
2022-11-12T17:56:14.764Z,12.30
2022-11-12T17:59:00.854Z,11.23
2022-11-12T18:01:46.194Z,11.20
2022-11-12T18:04:31.514Z,11.93
2022-11-12T18:07:17.077Z,11.23
2022-11-12T18:10:02.757Z,11.67
2022-11-12T18:12:48.222Z,11.80
2022-11-12T18:15:33.701Z,11.93
2022-11-12T18:18:19.785Z,10.33
2022-11-12T18:21:05.274Z,10.07
2022-11-12T18:23:51.008Z,10.53
2022-11-12T18:26:36.588Z,11.00
2022-11-12T18:29:21.771Z,10.30
2022-11-12T18:32:08.289Z,10.20
2022-11-12T18:34:53.674Z,10.07
2022-11-12T18:37:39.204Z,10.77
2022-11-12T18:40:25.573Z,9.53
2022-11-12T18:43:10.762Z,8.53
2022-11-12T18:45:59.027Z,9.97
2022-11-12T18:48:44.820Z,9.77
2022-11-12T18:51:30.108Z,14.07
2022-11-12T18:54:16.188Z,9.67
2022-11-12T18:57:01.710Z,8.30
2022-11-12T18:59:47.890Z,8.00
2022-11-12T19:02:33.184Z,7.90
2022-11-12T19:05:20.904Z,7.30
2022-11-12T19:08:06.101Z,7.50
2022-11-12T19:10:58.539Z,6.30
2022-11-12T19:13:44.514Z,6.57
2022-11-12T19:16:30.079Z,6.63
2022-11-12T19:19:16.008Z,7.10
2022-11-12T19:22:01.227Z,7.27
2022-11-12T19:24:47.559Z,6.30
2022-11-12T19:27:32.808Z,6.60
2022-11-12T19:30:18.280Z,8.35
2022-11-12T19:33:03.848Z,7.50
2022-11-12T19:35:49.632Z,7.40
2022-11-12T19:38:34.862Z,7.97
2022-11-12T19:41:20.532Z,8.07
2022-11-12T19:44:06.367Z,7.53
2022-11-12T19:46:51.929Z,7.57
2022-11-12T19:49:37.287Z,8.33
2022-11-12T19:52:22.801Z,7.93
2022-11-12T19:55:08.541Z,8.17
2022-11-12T19:57:54.094Z,7.63
2022-11-12T20:00:39.438Z,8.43
2022-11-12T20:03:26.367Z,9.27
2022-11-12T20:06:14.890Z,8.00
2022-11-12T20:09:00.358Z,7.63
2022-11-12T20:11:45.862Z,6.67
2022-11-12T20:14:31.400Z,7.10
2022-11-12T20:17:17.072Z,7.40
2022-11-12T20:20:03.637Z,7.03
2022-11-12T20:22:49.175Z,7.63
2022-11-12T20:25:34.602Z,7.20
2022-11-12T20:28:20.100Z,8.00
2022-11-12T20:31:08.079Z,8.03
2022-11-12T20:33:56.097Z,10.57
2022-11-12T20:36:41.755Z,9.33
2022-11-12T20:39:27.216Z,8.03
2022-11-12T20:42:12.892Z,8.30
2022-11-12T20:44:58.134Z,8.20
2022-11-12T20:47:43.838Z,8.83
2022-11-12T20:50:29.465Z,8.60
2022-11-12T20:53:15.141Z,8.57
2022-11-12T20:56:11.922Z,8.57
2022-11-12T20:58:58.998Z,8.90
2022-11-12T21:01:44.768Z,9.57
2022-11-12T21:04:29.999Z,9.87
2022-11-12T21:07:15.695Z,9.47
2022-11-12T21:10:01.022Z,9.10
2022-11-12T21:12:46.614Z,10.67
2022-11-12T21:15:32.095Z,9.60
2022-11-12T21:18:18.271Z,10.73
2022-11-12T21:21:12.507Z,10.20
2022-11-12T21:24:02.029Z,11.03
2022-11-12T21:26:50.190Z,11.27
2022-11-12T21:29:35.569Z,13.27
2022-11-12T21:32:21.177Z,15.20
2022-11-12T21:35:07.082Z,13.67
2022-11-12T21:37:52.540Z,12.43
2022-11-12T21:40:38.196Z,11.70
2022-11-12T21:43:23.467Z,8.97
2022-11-12T21:46:10.959Z,9.33
2022-11-12T21:48:57.149Z,8.93
2022-11-12T21:51:42.349Z,9.13
2022-11-12T21:54:27.859Z,9.47
2022-11-12T21:57:18.475Z,10.83
2022-11-12T22:00:34.479Z,16.20
2022-11-12T22:03:10.364Z,14.93
2022-11-12T22:05:55.979Z,10.87
2022-11-12T22:08:42.259Z,10.90
2022-11-12T22:11:27.638Z,12.63
2022-11-12T22:14:13.030Z,10.20
2022-11-12T22:16:58.538Z,7.00
2022-11-12T22:19:43.929Z,6.07
2022-11-12T22:22:29.382Z,5.93
2022-11-12T22:25:14.802Z,6.03
2022-11-12T22:28:00.418Z,5.97
2022-11-12T22:30:45.865Z,5.60
2022-11-12T22:33:31.514Z,5.60
2022-11-12T22:36:22.156Z,5.67
2022-11-12T22:39:07.771Z,6.27
2022-11-12T22:41:53.127Z,6.37
2022-11-12T22:44:38.436Z,6.70
2022-11-12T22:47:23.899Z,6.40
2022-11-12T22:50:10.099Z,6.60
2022-11-12T22:52:56.240Z,7.03
2022-11-12T22:55:41.655Z,6.47
2022-11-12T22:58:27.597Z,7.07
2022-11-12T23:01:31.431Z,7.80
2022-11-12T23:04:17.144Z,7.80
2022-11-12T23:07:02.794Z,7.47
2022-11-12T23:09:48.166Z,9.10
2022-11-12T23:12:33.851Z,9.30
2022-11-12T23:15:19.268Z,9.67
2022-11-12T23:18:04.735Z,8.83
2022-11-12T23:20:50.440Z,8.00
2022-11-12T23:23:36.201Z,8.23
2022-11-12T23:26:24.038Z,8.00
2022-11-12T23:29:11.814Z,7.87
2022-11-12T23:31:57.243Z,8.30
2022-11-12T23:34:42.688Z,8.07
2022-11-12T23:37:28.195Z,8.07
2022-11-12T23:40:13.790Z,7.43
2022-11-12T23:42:59.585Z,8.43
2022-11-12T23:45:44.816Z,8.20
2022-11-12T23:48:30.859Z,7.53
2022-11-12T23:51:19.568Z,7.80
2022-11-12T23:54:04.670Z,8.07
2022-11-12T23:56:50.198Z,8.47
2022-11-12T23:59:38.940Z,8.70
